METAR Data
IDs: Format: Raw Decoded Include TAF

Data at: 1214 UTC 23 Jun 2021

METAR for:KMYP (Monarch Pass, CO, US)
Text:KMYP 231155Z AUTO 27019KT 10SM CLR 10/M06 A3064 RMK AO2
Temperature: 10.0°C ( 50°F)
Dewpoint: -6.0°C ( 21°F) [RH = 32%]
Pressure (altimeter):30.64 inches Hg (1037.7 mb)
Winds:from the W (270 degrees) at 22 MPH (19 knots; 9.8 m/s)
Visibility:10 or more sm (16+ km)
Ceiling:at least 12,000 feet AGL
Clouds:sky clear below 12,000 feet AGL
QC Flag:automated observation with no human augmentation